sensor_id;sensor_type;location;lat;lon;timestamp;temperature;humidity
21306;DHT22;10812;51.838;5.838;2023-04-03T00:02:17;3.80;99.90
21306;DHT22;10812;51.838;5.838;2023-04-03T00:04:45;3.80;99.90
21306;DHT22;10812;51.838;5.838;2023-04-03T00:07:13;3.80;99.90
21306;DHT22;10812;51.838;5.838;2023-04-03T00:09:41;3.90;99.90
21306;DHT22;10812;51.838;5.838;2023-04-03T00:12:11;3.90;99.90
21306;DHT22;10812;51.838;5.838;2023-04-03T00:14:39;3.90;99.90
21306;DHT22;10812;51.838;5.838;2023-04-03T00:17:07;3.80;99.90
21306;DHT22;10812;51.838;5.838;2023-04-03T00:19:35;3.80;99.90
21306;DHT22;10812;51.838;5.838;2023-04-03T00:22:03;3.80;99.90
21306;DHT22;10812;51.838;5.838;2023-04-03T00:24:31;3.70;99.90
21306;DHT22;10812;51.838;5.838;2023-04-03T00:27:00;3.70;99.90
21306;DHT22;10812;51.838;5.838;2023-04-03T00:29:29;3.70;99.90
21306;DHT22;10812;51.838;5.838;2023-04-03T00:31:57;3.60;99.90
21306;DHT22;10812;51.838;5.838;2023-04-03T00:34:25;3.60;99.90
21306;DHT22;10812;51.838;5.838;2023-04-03T00:36:53;3.60;99.90
21306;DHT22;10812;51.838;5.838;2023-04-03T00:39:22;3.50;99.90
21306;DHT22;10812;51.838;5.838;2023-04-03T00:41:50;3.60;99.90
21306;DHT22;10812;51.838;5.838;2023-04-03T00:44:20;3.50;99.90
21306;DHT22;10812;51.838;5.838;2023-04-03T00:46:50;3.50;99.90
21306;DHT22;10812;51.838;5.838;2023-04-03T00:49:18;3.50;99.90
21306;DHT22;10812;51.838;5.838;2023-04-03T00:51:46;3.40;99.90
21306;DHT22;10812;51.838;5.838;2023-04-03T00:54:15;3.40;99.90
21306;DHT22;10812;51.838;5.838;2023-04-03T00:56:43;3.40;99.90
21306;DHT22;10812;51.838;5.838;2023-04-03T00:59:15;3.40;99.90
21306;DHT22;10812;51.838;5.838;2023-04-03T01:01:44;3.30;99.90
21306;DHT22;10812;51.838;5.838;2023-04-03T01:04:26;3.30;99.90
21306;DHT22;10812;51.838;5.838;2023-04-03T01:06:55;3.30;99.90
21306;DHT22;10812;51.838;5.838;2023-04-03T01:09:24;3.20;99.90
21306;DHT22;10812;51.838;5.838;2023-04-03T01:11:52;3.20;99.90
21306;DHT22;10812;51.838;5.838;2023-04-03T01:14:21;3.20;99.90
21306;DHT22;10812;51.838;5.838;2023-04-03T01:16:53;3.20;99.90
21306;DHT22;10812;51.838;5.838;2023-04-03T01:19:21;3.20;99.90
21306;DHT22;10812;51.838;5.838;2023-04-03T01:22:10;3.20;99.90
21306;DHT22;10812;51.838;5.838;2023-04-03T01:24:42;3.20;99.90
21306;DHT22;10812;51.838;5.838;2023-04-03T01:27:11;3.20;99.90
21306;DHT22;10812;51.838;5.838;2023-04-03T01:29:40;3.20;99.90
21306;DHT22;10812;51.838;5.838;2023-04-03T01:32:11;3.10;99.90
21306;DHT22;10812;51.838;5.838;2023-04-03T01:34:39;3.10;99.90
21306;DHT22;10812;51.838;5.838;2023-04-03T01:37:07;3.00;99.90
21306;DHT22;10812;51.838;5.838;2023-04-03T01:39:36;3.00;99.90
21306;DHT22;10812;51.838;5.838;2023-04-03T01:42:04;3.00;99.90
21306;DHT22;10812;51.838;5.838;2023-04-03T01:44:32;3.10;99.90
21306;DHT22;10812;51.838;5.838;2023-04-03T01:47:00;3.00;99.90
21306;DHT22;10812;51.838;5.838;2023-04-03T01:49:30;3.00;99.90
21306;DHT22;10812;51.838;5.838;2023-04-03T01:51:58;3.00;99.90
21306;DHT22;10812;51.838;5.838;2023-04-03T01:54:26;3.00;99.90
21306;DHT22;10812;51.838;5.838;2023-04-03T01:56:54;3.00;99.90
21306;DHT22;10812;51.838;5.838;2023-04-03T01:59:22;3.00;99.90
21306;DHT22;10812;51.838;5.838;2023-04-03T02:01:50;3.00;99.90
21306;DHT22;10812;51.838;5.838;2023-04-03T02:04:19;2.90;99.90
21306;DHT22;10812;51.838;5.838;2023-04-03T02:06:48;2.90;99.90
21306;DHT22;10812;51.838;5.838;2023-04-03T02:09:16;2.90;99.90
21306;DHT22;10812;51.838;5.838;2023-04-03T02:11:44;2.90;99.90
21306;DHT22;10812;51.838;5.838;2023-04-03T02:14:13;2.80;99.90
21306;DHT22;10812;51.838;5.838;2023-04-03T02:16:41;2.90;99.90
21306;DHT22;10812;51.838;5.838;2023-04-03T02:19:09;2.80;99.90
21306;DHT22;10812;51.838;5.838;2023-04-03T02:21:37;2.80;99.90
21306;DHT22;10812;51.838;5.838;2023-04-03T02:24:07;2.80;99.90
21306;DHT22;10812;51.838;5.838;2023-04-03T02:26:35;2.80;99.90
21306;DHT22;10812;51.838;5.838;2023-04-03T02:29:03;2.70;99.90
21306;DHT22;10812;51.838;5.838;2023-04-03T02:31:32;2.70;99.90
21306;DHT22;10812;51.838;5.838;2023-04-03T02:34:00;2.70;99.90
21306;DHT22;10812;51.838;5.838;2023-04-03T02:36:28;2.70;99.90
21306;DHT22;10812;51.838;5.838;2023-04-03T02:38:58;2.70;99.90
21306;DHT22;10812;51.838;5.838;2023-04-03T02:41:28;2.60;99.90
21306;DHT22;10812;51.838;5.838;2023-04-03T02:44:02;2.60;99.90
21306;DHT22;10812;51.838;5.838;2023-04-03T02:46:30;2.60;99.90
21306;DHT22;10812;51.838;5.838;2023-04-03T02:48:58;2.60;99.90
21306;DHT22;10812;51.838;5.838;2023-04-03T02:51:27;2.50;99.90
21306;DHT22;10812;51.838;5.838;2023-04-03T02:53:55;2.50;99.90
21306;DHT22;10812;51.838;5.838;2023-04-03T02:56:23;2.50;99.90
21306;DHT22;10812;51.838;5.838;2023-04-03T02:58:53;2.50;99.90
21306;DHT22;10812;51.838;5.838;2023-04-03T03:06:51;2.40;99.90
21306;DHT22;10812;51.838;5.838;2023-04-03T03:09:20;2.40;99.90
21306;DHT22;10812;51.838;5.838;2023-04-03T03:11:48;2.30;99.90
21306;DHT22;10812;51.838;5.838;2023-04-03T03:14:17;2.30;99.90
21306;DHT22;10812;51.838;5.838;2023-04-03T03:16:45;2.30;99.90
21306;DHT22;10812;51.838;5.838;2023-04-03T03:19:14;2.30;99.90
21306;DHT22;10812;51.838;5.838;2023-04-03T03:21:42;2.30;99.90
21306;DHT22;10812;51.838;5.838;2023-04-03T03:24:10;2.30;99.90
21306;DHT22;10812;51.838;5.838;2023-04-03T03:26:38;2.30;99.90
21306;DHT22;10812;51.838;5.838;2023-04-03T03:29:07;2.20;99.90
21306;DHT22;10812;51.838;5.838;2023-04-03T03:31:37;2.20;99.90
21306;DHT22;10812;51.838;5.838;2023-04-03T03:34:05;2.20;99.90
21306;DHT22;10812;51.838;5.838;2023-04-03T03:36:33;2.30;99.90
21306;DHT22;10812;51.838;5.838;2023-04-03T03:39:01;2.20;99.90
21306;DHT22;10812;51.838;5.838;2023-04-03T03:41:29;2.20;99.90
21306;DHT22;10812;51.838;5.838;2023-04-03T03:43:57;2.20;99.90
21306;DHT22;10812;51.838;5.838;2023-04-03T03:46:26;2.20;99.90
21306;DHT22;10812;51.838;5.838;2023-04-03T03:48:55;2.10;99.90
21306;DHT22;10812;51.838;5.838;2023-04-03T03:51:23;2.10;99.90
21306;DHT22;10812;51.838;5.838;2023-04-03T03:53:52;2.10;99.90
21306;DHT22;10812;51.838;5.838;2023-04-03T03:56:20;2.00;99.90
21306;DHT22;10812;51.838;5.838;2023-04-03T03:58:48;2.00;99.90
21306;DHT22;10812;51.838;5.838;2023-04-03T04:01:17;2.00;99.90
21306;DHT22;10812;51.838;5.838;2023-04-03T04:03:45;1.90;99.90
21306;DHT22;10812;51.838;5.838;2023-04-03T04:06:15;1.90;99.90
21306;DHT22;10812;51.838;5.838;2023-04-03T04:08:43;1.90;99.90
21306;DHT22;10812;51.838;5.838;2023-04-03T04:11:11;1.90;99.90
21306;DHT22;10812;51.838;5.838;2023-04-03T04:13:40;1.90;99.90
21306;DHT22;10812;51.838;5.838;2023-04-03T04:16:08;1.90;99.90
21306;DHT22;10812;51.838;5.838;2023-04-03T04:18:36;1.90;99.90
21306;DHT22;10812;51.838;5.838;2023-04-03T04:21:04;1.80;99.90
21306;DHT22;10812;51.838;5.838;2023-04-03T04:23:34;1.80;99.90
21306;DHT22;10812;51.838;5.838;2023-04-03T04:26:02;1.80;99.90
21306;DHT22;10812;51.838;5.838;2023-04-03T04:28:30;1.70;99.90
21306;DHT22;10812;51.838;5.838;2023-04-03T04:30:58;1.70;99.90
21306;DHT22;10812;51.838;5.838;2023-04-03T04:33:27;1.70;99.90
21306;DHT22;10812;51.838;5.838;2023-04-03T04:35:55;1.60;99.90
21306;DHT22;10812;51.838;5.838;2023-04-03T04:46:08;1.50;99.90
21306;DHT22;10812;51.838;5.838;2023-04-03T04:48:38;1.50;99.90
21306;DHT22;10812;51.838;5.838;2023-04-03T04:51:07;1.50;99.90
21306;DHT22;10812;51.838;5.838;2023-04-03T04:53:35;1.50;99.90
21306;DHT22;10812;51.838;5.838;2023-04-03T04:56:04;1.50;99.90
21306;DHT22;10812;51.838;5.838;2023-04-03T04:58:32;1.50;99.90
21306;DHT22;10812;51.838;5.838;2023-04-03T05:01:00;1.40;99.90
21306;DHT22;10812;51.838;5.838;2023-04-03T05:03:30;1.40;99.90
21306;DHT22;10812;51.838;5.838;2023-04-03T05:05:59;1.40;99.90
21306;DHT22;10812;51.838;5.838;2023-04-03T05:33:25;1.40;99.90
21306;DHT22;10812;51.838;5.838;2023-04-03T05:35:54;1.40;99.90
21306;DHT22;10812;51.838;5.838;2023-04-03T05:38:22;1.40;99.90
21306;DHT22;10812;51.838;5.838;2023-04-03T05:48:22;1.50;99.90
21306;DHT22;10812;51.838;5.838;2023-04-03T05:50:52;1.50;99.90
21306;DHT22;10812;51.838;5.838;2023-04-03T05:53:26;1.50;99.90
21306;DHT22;10812;51.838;5.838;2023-04-03T05:55:54;1.60;99.90
21306;DHT22;10812;51.838;5.838;2023-04-03T06:08:57;1.80;99.90
21306;DHT22;10812;51.838;5.838;2023-04-03T06:11:26;1.90;99.90
21306;DHT22;10812;51.838;5.838;2023-04-03T06:18:18;3.90;99.90
21306;DHT22;10812;51.838;5.838;2023-04-03T06:20:46;5.40;99.90
21306;DHT22;10812;51.838;5.838;2023-04-03T06:23:14;6.30;99.90
21306;DHT22;10812;51.838;5.838;2023-04-03T06:25:44;6.20;99.90
21306;DHT22;10812;51.838;5.838;2023-04-03T06:28:12;6.10;99.90
21306;DHT22;10812;51.838;5.838;2023-04-03T06:30:40;6.80;99.90
21306;DHT22;10812;51.838;5.838;2023-04-03T06:33:08;7.10;99.90
21306;DHT22;10812;51.838;5.838;2023-04-03T06:35:37;7.40;99.90
21306;DHT22;10812;51.838;5.838;2023-04-03T06:38:05;6.90;99.90
21306;DHT22;10812;51.838;5.838;2023-04-03T06:40:36;6.90;99.90
21306;DHT22;10812;51.838;5.838;2023-04-03T06:43:06;7.60;99.90
21306;DHT22;10812;51.838;5.838;2023-04-03T06:45:35;8.40;99.90
21306;DHT22;10812;51.838;5.838;2023-04-03T06:48:04;9.20;99.90
21306;DHT22;10812;51.838;5.838;2023-04-03T06:50:32;9.10;99.90
21306;DHT22;10812;51.838;5.838;2023-04-03T06:53:00;9.10;99.90
21306;DHT22;10812;51.838;5.838;2023-04-03T07:07:48;8.20;99.90
21306;DHT22;10812;51.838;5.838;2023-04-03T07:10:17;8.10;99.90
21306;DHT22;10812;51.838;5.838;2023-04-03T07:12:45;8.40;99.90
21306;DHT22;10812;51.838;5.838;2023-04-03T07:15:13;8.60;99.90
21306;DHT22;10812;51.838;5.838;2023-04-03T07:17:42;8.80;99.90
21306;DHT22;10812;51.838;5.838;2023-04-03T07:20:11;10.00;99.90
21306;DHT22;10812;51.838;5.838;2023-04-03T07:22:39;10.00;99.90
21306;DHT22;10812;51.838;5.838;2023-04-03T07:25:09;9.00;99.90
21306;DHT22;10812;51.838;5.838;2023-04-03T07:27:37;9.90;99.90
21306;DHT22;10812;51.838;5.838;2023-04-03T07:30:07;9.30;99.90
21306;DHT22;10812;51.838;5.838;2023-04-03T07:32:35;9.00;99.90
21306;DHT22;10812;51.838;5.838;2023-04-03T07:35:04;8.80;99.90
21306;DHT22;10812;51.838;5.838;2023-04-03T07:37:32;8.50;99.90
21306;DHT22;10812;51.838;5.838;2023-04-03T07:40:00;9.30;99.90
21306;DHT22;10812;51.838;5.838;2023-04-03T07:42:31;8.90;99.90
21306;DHT22;10812;51.838;5.838;2023-04-03T07:44:59;9.10;99.90
21306;DHT22;10812;51.838;5.838;2023-04-03T07:47:28;8.90;99.90
21306;DHT22;10812;51.838;5.838;2023-04-03T07:49:56;9.70;99.90
21306;DHT22;10812;51.838;5.838;2023-04-03T07:52:25;9.70;99.90
21306;DHT22;10812;51.838;5.838;2023-04-03T07:54:53;9.90;99.90
21306;DHT22;10812;51.838;5.838;2023-04-03T07:57:21;9.70;99.90
21306;DHT22;10812;51.838;5.838;2023-04-03T07:59:50;10.50;99.90
21306;DHT22;10812;51.838;5.838;2023-04-03T08:02:18;11.40;99.90
21306;DHT22;10812;51.838;5.838;2023-04-03T08:04:47;10.70;99.90
21306;DHT22;10812;51.838;5.838;2023-04-03T08:07:15;10.10;99.90
21306;DHT22;10812;51.838;5.838;2023-04-03T08:09:43;10.50;99.90
21306;DHT22;10812;51.838;5.838;2023-04-03T08:12:12;10.20;99.90
21306;DHT22;10812;51.838;5.838;2023-04-03T08:14:41;10.20;99.90
21306;DHT22;10812;51.838;5.838;2023-04-03T08:17:10;9.60;99.90
21306;DHT22;10812;51.838;5.838;2023-04-03T08:19:40;9.50;99.90
21306;DHT22;10812;51.838;5.838;2023-04-03T08:22:08;10.00;99.90
21306;DHT22;10812;51.838;5.838;2023-04-03T08:24:37;9.80;99.90
21306;DHT22;10812;51.838;5.838;2023-04-03T08:27:14;10.00;99.90
21306;DHT22;10812;51.838;5.838;2023-04-03T08:29:43;10.70;99.90
21306;DHT22;10812;51.838;5.838;2023-04-03T08:32:12;11.00;99.90
21306;DHT22;10812;51.838;5.838;2023-04-03T08:34:40;11.60;98.40
21306;DHT22;10812;51.838;5.838;2023-04-03T09:03:54;9.70;98.20
21306;DHT22;10812;51.838;5.838;2023-04-03T09:06:26;10.30;97.20
21306;DHT22;10812;51.838;5.838;2023-04-03T09:09:05;10.50;96.30
21306;DHT22;10812;51.838;5.838;2023-04-03T09:11:43;10.50;95.80
21306;DHT22;10812;51.838;5.838;2023-04-03T09:14:17;10.30;94.80
21306;DHT22;10812;51.838;5.838;2023-04-03T09:17:12;10.60;95.20
21306;DHT22;10812;51.838;5.838;2023-04-03T09:19:49;10.40;93.60
21306;DHT22;10812;51.838;5.838;2023-04-03T09:22:21;10.00;93.20
21306;DHT22;10812;51.838;5.838;2023-04-03T09:24:57;9.60;92.20
21306;DHT22;10812;51.838;5.838;2023-04-03T09:27:26;10.20;92.80
21306;DHT22;10812;51.838;5.838;2023-04-03T09:29:56;10.50;91.90
21306;DHT22;10812;51.838;5.838;2023-04-03T09:32:27;10.60;91.50
21306;DHT22;10812;51.838;5.838;2023-04-03T09:35:01;10.50;90.10
21306;DHT22;10812;51.838;5.838;2023-04-03T09:37:48;10.80;90.40
21306;DHT22;10812;51.838;5.838;2023-04-03T09:40:32;11.10;91.60
21306;DHT22;10812;51.838;5.838;2023-04-03T09:43:19;10.50;81.80
21306;DHT22;10812;51.838;5.838;2023-04-03T09:45:49;9.80;83.20
21306;DHT22;10812;51.838;5.838;2023-04-03T09:48:19;10.30;81.40
21306;DHT22;10812;51.838;5.838;2023-04-03T09:50:59;9.90;82.10
21306;DHT22;10812;51.838;5.838;2023-04-03T09:53:32;10.80;81.00
21306;DHT22;10812;51.838;5.838;2023-04-03T09:56:03;10.90;78.90
21306;DHT22;10812;51.838;5.838;2023-04-03T09:58:34;10.90;80.30
21306;DHT22;10812;51.838;5.838;2023-04-03T10:01:25;10.40;77.50
21306;DHT22;10812;51.838;5.838;2023-04-03T10:04:08;10.20;77.40
21306;DHT22;10812;51.838;5.838;2023-04-03T10:06:40;10.20;74.70
21306;DHT22;10812;51.838;5.838;2023-04-03T10:09:19;9.90;77.20
21306;DHT22;10812;51.838;5.838;2023-04-03T10:11:59;9.50;79.40
21306;DHT22;10812;51.838;5.838;2023-04-03T10:14:28;9.90;80.70
21306;DHT22;10812;51.838;5.838;2023-04-03T10:17:02;9.80;75.80
21306;DHT22;10812;51.838;5.838;2023-04-03T10:19:39;9.60;75.70
21306;DHT22;10812;51.838;5.838;2023-04-03T10:22:24;9.80;75.60
21306;DHT22;10812;51.838;5.838;2023-04-03T10:25:03;9.70;76.60
21306;DHT22;10812;51.838;5.838;2023-04-03T10:27:39;9.60;76.90
21306;DHT22;10812;51.838;5.838;2023-04-03T10:30:19;9.20;75.80
21306;DHT22;10812;51.838;5.838;2023-04-03T10:32:58;8.70;77.80
21306;DHT22;10812;51.838;5.838;2023-04-03T10:35:37;8.30;79.50
21306;DHT22;10812;51.838;5.838;2023-04-03T10:38:14;8.10;83.00
21306;DHT22;10812;51.838;5.838;2023-04-03T10:40:50;8.10;81.60
21306;DHT22;10812;51.838;5.838;2023-04-03T10:43:26;7.80;80.80
21306;DHT22;10812;51.838;5.838;2023-04-03T10:46:00;7.90;83.30
21306;DHT22;10812;51.838;5.838;2023-04-03T10:48:57;8.20;83.50
21306;DHT22;10812;51.838;5.838;2023-04-03T10:51:33;8.10;82.20
21306;DHT22;10812;51.838;5.838;2023-04-03T10:54:11;8.10;83.80
21306;DHT22;10812;51.838;5.838;2023-04-03T10:56:42;8.20;82.50
21306;DHT22;10812;51.838;5.838;2023-04-03T10:59:19;8.10;84.30
21306;DHT22;10812;51.838;5.838;2023-04-03T11:01:52;7.80;84.20
21306;DHT22;10812;51.838;5.838;2023-04-03T11:04:26;7.90;83.60
21306;DHT22;10812;51.838;5.838;2023-04-03T11:06:59;8.10;83.70
21306;DHT22;10812;51.838;5.838;2023-04-03T11:09:32;8.10;83.30
21306;DHT22;10812;51.838;5.838;2023-04-03T11:12:06;8.20;84.80
21306;DHT22;10812;51.838;5.838;2023-04-03T11:14:38;8.10;85.60
21306;DHT22;10812;51.838;5.838;2023-04-03T11:17:19;8.00;85.80
21306;DHT22;10812;51.838;5.838;2023-04-03T11:19:52;8.10;87.80
21306;DHT22;10812;51.838;5.838;2023-04-03T11:22:27;8.20;87.50
21306;DHT22;10812;51.838;5.838;2023-04-03T11:25:03;8.20;87.70
21306;DHT22;10812;51.838;5.838;2023-04-03T11:27:38;8.30;88.20
21306;DHT22;10812;51.838;5.838;2023-04-03T11:30:14;8.30;85.50
21306;DHT22;10812;51.838;5.838;2023-04-03T11:33:05;8.40;85.10
21306;DHT22;10812;51.838;5.838;2023-04-03T11:35:37;8.10;86.90
21306;DHT22;10812;51.838;5.838;2023-04-03T11:38:17;8.00;87.10
21306;DHT22;10812;51.838;5.838;2023-04-03T11:40:49;8.30;88.00
21306;DHT22;10812;51.838;5.838;2023-04-03T11:43:24;8.30;87.00
21306;DHT22;10812;51.838;5.838;2023-04-03T11:45:55;8.30;86.80
21306;DHT22;10812;51.838;5.838;2023-04-03T11:48:45;8.30;86.80
21306;DHT22;10812;51.838;5.838;2023-04-03T11:51:42;8.30;87.20
21306;DHT22;10812;51.838;5.838;2023-04-03T11:54:36;8.40;87.60
21306;DHT22;10812;51.838;5.838;2023-04-03T11:57:46;8.30;87.20
21306;DHT22;10812;51.838;5.838;2023-04-03T12:03:58;8.60;90.20
21306;DHT22;10812;51.838;5.838;2023-04-03T12:12:35;8.70;90.00
21306;DHT22;10812;51.838;5.838;2023-04-03T12:21:20;8.70;90.20
21306;DHT22;10812;51.838;5.838;2023-04-03T12:24:01;8.80;90.60
21306;DHT22;10812;51.838;5.838;2023-04-03T12:26:34;8.70;87.60
21306;DHT22;10812;51.838;5.838;2023-04-03T12:29:18;8.60;89.30
21306;DHT22;10812;51.838;5.838;2023-04-03T12:31:56;8.60;88.40
21306;DHT22;10812;51.838;5.838;2023-04-03T12:34:43;8.60;90.00
21306;DHT22;10812;51.838;5.838;2023-04-03T12:37:23;8.50;89.80
21306;DHT22;10812;51.838;5.838;2023-04-03T12:40:05;8.50;90.20
21306;DHT22;10812;51.838;5.838;2023-04-03T12:42:46;8.60;90.00
21306;DHT22;10812;51.838;5.838;2023-04-03T12:45:20;8.60;90.10
21306;DHT22;10812;51.838;5.838;2023-04-03T12:47:53;8.60;90.00
21306;DHT22;10812;51.838;5.838;2023-04-03T12:50:24;8.60;90.00
21306;DHT22;10812;51.838;5.838;2023-04-03T12:52:57;8.70;90.00
21306;DHT22;10812;51.838;5.838;2023-04-03T12:55:27;8.70;90.20
21306;DHT22;10812;51.838;5.838;2023-04-03T12:57:55;8.70;89.70
21306;DHT22;10812;51.838;5.838;2023-04-03T13:00:32;8.70;89.70
21306;DHT22;10812;51.838;5.838;2023-04-03T13:03:03;8.70;90.40
21306;DHT22;10812;51.838;5.838;2023-04-03T13:05:33;8.70;90.50
21306;DHT22;10812;51.838;5.838;2023-04-03T13:08:05;8.70;90.20
21306;DHT22;10812;51.838;5.838;2023-04-03T13:10:46;8.60;90.80
21306;DHT22;10812;51.838;5.838;2023-04-03T13:13:15;8.60;90.40
21306;DHT22;10812;51.838;5.838;2023-04-03T13:15:46;8.70;91.60
21306;DHT22;10812;51.838;5.838;2023-04-03T13:18:26;8.80;91.70
21306;DHT22;10812;51.838;5.838;2023-04-03T13:20:59;8.70;90.70
21306;DHT22;10812;51.838;5.838;2023-04-03T13:23:30;8.80;91.10
21306;DHT22;10812;51.838;5.838;2023-04-03T13:25:59;8.80;90.60
21306;DHT22;10812;51.838;5.838;2023-04-03T13:28:31;8.90;90.10
21306;DHT22;10812;51.838;5.838;2023-04-03T13:31:04;8.80;90.10
21306;DHT22;10812;51.838;5.838;2023-04-03T13:33:36;8.70;90.40
21306;DHT22;10812;51.838;5.838;2023-04-03T13:36:07;8.60;91.70
21306;DHT22;10812;51.838;5.838;2023-04-03T13:38:38;8.80;90.70
21306;DHT22;10812;51.838;5.838;2023-04-03T13:41:23;8.90;90.30
21306;DHT22;10812;51.838;5.838;2023-04-03T13:43:52;8.80;90.10
21306;DHT22;10812;51.838;5.838;2023-04-03T13:46:32;8.70;90.10
21306;DHT22;10812;51.838;5.838;2023-04-03T13:49:18;8.80;90.70
21306;DHT22;10812;51.838;5.838;2023-04-03T13:51:46;8.80;90.10
21306;DHT22;10812;51.838;5.838;2023-04-03T13:54:32;8.80;90.60
21306;DHT22;10812;51.838;5.838;2023-04-03T13:57:02;8.70;91.00
21306;DHT22;10812;51.838;5.838;2023-04-03T13:59:34;8.80;91.10
21306;DHT22;10812;51.838;5.838;2023-04-03T14:02:16;8.80;91.30
21306;DHT22;10812;51.838;5.838;2023-04-03T14:04:50;8.80;90.10
21306;DHT22;10812;51.838;5.838;2023-04-03T14:07:19;8.90;90.40
21306;DHT22;10812;51.838;5.838;2023-04-03T14:09:48;9.00;89.80
21306;DHT22;10812;51.838;5.838;2023-04-03T14:12:20;8.90;90.20
21306;DHT22;10812;51.838;5.838;2023-04-03T14:14:58;8.80;90.30
21306;DHT22;10812;51.838;5.838;2023-04-03T14:17:26;8.80;90.70
21306;DHT22;10812;51.838;5.838;2023-04-03T14:19:57;9.00;90.20
21306;DHT22;10812;51.838;5.838;2023-04-03T14:22:30;8.80;89.80
21306;DHT22;10812;51.838;5.838;2023-04-03T14:25:00;8.70;90.50
21306;DHT22;10812;51.838;5.838;2023-04-03T14:27:33;8.80;90.90
21306;DHT22;10812;51.838;5.838;2023-04-03T14:30:03;9.00;91.00
21306;DHT22;10812;51.838;5.838;2023-04-03T14:32:31;9.00;91.40
21306;DHT22;10812;51.838;5.838;2023-04-03T15:06:15;8.80;92.50
21306;DHT22;10812;51.838;5.838;2023-04-03T15:08:44;8.90;93.70
21306;DHT22;10812;51.838;5.838;2023-04-03T15:11:14;9.00;92.80
21306;DHT22;10812;51.838;5.838;2023-04-03T15:13:42;8.90;92.70
21306;DHT22;10812;51.838;5.838;2023-04-03T15:16:14;8.90;92.70
21306;DHT22;10812;51.838;5.838;2023-04-03T15:18:44;8.90;92.70
21306;DHT22;10812;51.838;5.838;2023-04-03T15:21:14;8.90;92.50
21306;DHT22;10812;51.838;5.838;2023-04-03T15:23:43;8.70;92.60
21306;DHT22;10812;51.838;5.838;2023-04-03T15:26:11;8.70;93.40
21306;DHT22;10812;51.838;5.838;2023-04-03T15:28:41;8.70;92.90
21306;DHT22;10812;51.838;5.838;2023-04-03T15:31:10;8.70;93.20
21306;DHT22;10812;51.838;5.838;2023-04-03T15:33:38;8.70;93.70
21306;DHT22;10812;51.838;5.838;2023-04-03T15:36:07;8.70;93.40
21306;DHT22;10812;51.838;5.838;2023-04-03T15:38:57;8.50;93.50
21306;DHT22;10812;51.838;5.838;2023-04-03T15:41:25;8.60;93.60
21306;DHT22;10812;51.838;5.838;2023-04-03T15:43:53;8.70;93.90
21306;DHT22;10812;51.838;5.838;2023-04-03T15:46:21;8.70;93.60
21306;DHT22;10812;51.838;5.838;2023-04-03T15:48:49;8.60;93.40
21306;DHT22;10812;51.838;5.838;2023-04-03T15:51:18;8.60;93.30
21306;DHT22;10812;51.838;5.838;2023-04-03T15:57:38;8.50;94.00
21306;DHT22;10812;51.838;5.838;2023-04-03T16:00:12;8.60;94.70
21306;DHT22;10812;51.838;5.838;2023-04-03T16:02:41;8.60;94.50
21306;DHT22;10812;51.838;5.838;2023-04-03T16:05:10;8.50;94.90
21306;DHT22;10812;51.838;5.838;2023-04-03T16:07:39;8.60;95.50
21306;DHT22;10812;51.838;5.838;2023-04-03T16:10:08;8.60;95.80
21306;DHT22;10812;51.838;5.838;2023-04-03T16:12:38;8.50;95.70
21306;DHT22;10812;51.838;5.838;2023-04-03T16:15:07;8.50;96.10
21306;DHT22;10812;51.838;5.838;2023-04-03T16:17:36;8.50;95.90
21306;DHT22;10812;51.838;5.838;2023-04-03T16:20:07;8.50;96.30
21306;DHT22;10812;51.838;5.838;2023-04-03T16:22:36;8.40;96.30
21306;DHT22;10812;51.838;5.838;2023-04-03T16:25:06;8.40;97.10
21306;DHT22;10812;51.838;5.838;2023-04-03T16:27:35;8.50;96.70
21306;DHT22;10812;51.838;5.838;2023-04-03T16:30:07;8.40;96.90
21306;DHT22;10812;51.838;5.838;2023-04-03T16:32:36;8.40;97.50
21306;DHT22;10812;51.838;5.838;2023-04-03T16:35:05;8.40;97.40
21306;DHT22;10812;51.838;5.838;2023-04-03T16:37:33;8.40;96.60
21306;DHT22;10812;51.838;5.838;2023-04-03T16:40:02;8.40;96.50
21306;DHT22;10812;51.838;5.838;2023-04-03T16:42:30;8.30;96.60
21306;DHT22;10812;51.838;5.838;2023-04-03T16:45:00;8.30;96.50
21306;DHT22;10812;51.838;5.838;2023-04-03T16:47:31;8.20;96.40
21306;DHT22;10812;51.838;5.838;2023-04-03T16:49:59;8.20;96.70
21306;DHT22;10812;51.838;5.838;2023-04-03T16:52:28;8.20;96.10
21306;DHT22;10812;51.838;5.838;2023-04-03T16:54:56;8.10;96.30
21306;DHT22;10812;51.838;5.838;2023-04-03T16:57:25;8.10;96.60
21306;DHT22;10812;51.838;5.838;2023-04-03T16:59:54;8.10;96.70
21306;DHT22;10812;51.838;5.838;2023-04-03T17:02:23;8.00;97.00
21306;DHT22;10812;51.838;5.838;2023-04-03T17:04:53;8.00;97.40
21306;DHT22;10812;51.838;5.838;2023-04-03T17:07:24;8.00;96.80
21306;DHT22;10812;51.838;5.838;2023-04-03T17:09:52;7.90;97.10
21306;DHT22;10812;51.838;5.838;2023-04-03T17:12:21;7.90;96.90
21306;DHT22;10812;51.838;5.838;2023-04-03T17:14:51;7.80;97.40
21306;DHT22;10812;51.838;5.838;2023-04-03T17:17:21;7.80;97.90
21306;DHT22;10812;51.838;5.838;2023-04-03T17:19:49;7.80;98.20
21306;DHT22;10812;51.838;5.838;2023-04-03T17:22:19;7.90;98.60
21306;DHT22;10812;51.838;5.838;2023-04-03T17:24:47;7.80;98.60
21306;DHT22;10812;51.838;5.838;2023-04-03T17:27:15;7.90;98.60
21306;DHT22;10812;51.838;5.838;2023-04-03T17:29:44;7.90;97.90
21306;DHT22;10812;51.838;5.838;2023-04-03T17:32:12;7.70;98.10
21306;DHT22;10812;51.838;5.838;2023-04-03T17:34:40;7.70;98.30
21306;DHT22;10812;51.838;5.838;2023-04-03T17:37:08;7.60;98.30
21306;DHT22;10812;51.838;5.838;2023-04-03T17:39:38;7.60;98.60
21306;DHT22;10812;51.838;5.838;2023-04-03T17:42:08;7.60;99.10
21306;DHT22;10812;51.838;5.838;2023-04-03T17:44:36;7.50;98.70
21306;DHT22;10812;51.838;5.838;2023-04-03T17:47:06;7.40;98.90
21306;DHT22;10812;51.838;5.838;2023-04-03T17:49:34;7.30;99.50
21306;DHT22;10812;51.838;5.838;2023-04-03T17:52:02;7.30;99.90
21306;DHT22;10812;51.838;5.838;2023-04-03T17:54:30;7.30;99.90
21306;DHT22;10812;51.838;5.838;2023-04-03T17:57:00;7.30;99.80
21306;DHT22;10812;51.838;5.838;2023-04-03T17:59:30;7.20;99.90
21306;DHT22;10812;51.838;5.838;2023-04-03T18:01:59;7.10;99.90
21306;DHT22;10812;51.838;5.838;2023-04-03T18:04:27;7.10;99.90
21306;DHT22;10812;51.838;5.838;2023-04-03T18:06:57;7.10;99.90
21306;DHT22;10812;51.838;5.838;2023-04-03T18:09:26;7.10;99.90
21306;DHT22;10812;51.838;5.838;2023-04-03T18:11:56;7.00;99.90
21306;DHT22;10812;51.838;5.838;2023-04-03T18:14:27;6.90;99.90
21306;DHT22;10812;51.838;5.838;2023-04-03T18:16:56;6.90;99.90
21306;DHT22;10812;51.838;5.838;2023-04-03T18:19:25;6.80;99.90
21306;DHT22;10812;51.838;5.838;2023-04-03T18:25:54;6.70;99.90
21306;DHT22;10812;51.838;5.838;2023-04-03T18:28:22;6.60;99.90
21306;DHT22;10812;51.838;5.838;2023-04-03T18:30:52;6.60;99.90
21306;DHT22;10812;51.838;5.838;2023-04-03T18:33:20;6.50;99.90
21306;DHT22;10812;51.838;5.838;2023-04-03T18:35:48;6.40;99.90
21306;DHT22;10812;51.838;5.838;2023-04-03T18:38:16;6.40;99.90
21306;DHT22;10812;51.838;5.838;2023-04-03T18:40:44;6.40;99.90
21306;DHT22;10812;51.838;5.838;2023-04-03T18:43:13;6.40;99.90
21306;DHT22;10812;51.838;5.838;2023-04-03T18:45:41;6.30;99.90